Time;durP1;ratioP1;P1;durP2;ratioP2;P2;SDS_P1;SDS_P2;PMS_P1;PMS_P2;Temp;Humidity;BMP_temperature;BMP_pressure;BME280_temperature;BME280_humidity;BME280_pressure;Samples;Min_cycle;Max_cycle;Signal;HPM_P1;HPM_P2
2023/01/12 00:02:09;;;;;;;;;;;;;;;;;;7369718;19;1383;-67
2023/01/12 00:04:37;;;;;;;;;;;;;;;;;;7370098;19;752;-67
2023/01/12 00:07:05;;;;;;;;;;;;;;;;;;7371383;19;819;-69
2023/01/12 00:09:33;;;;;;;;;;;;;;;;;;7369681;19;778;-68
2023/01/12 00:12:02;;;;;;;;;;;;;;;;;;7370096;19;1358;-68
2023/01/12 00:14:30;;;;;;;;;;;;;;;;;;7369736;19;1857;-68
2023/01/12 00:16:58;;;;;;;;;;;;;;;;;;7370622;19;892;-67
2023/01/12 00:19:26;;;;;;;;;;;;;;;;;;7373458;19;1893;-68
2023/01/12 00:21:58;;;;;;;;;;;;;;;;;;7369740;19;1282;-69
2023/01/12 00:24:27;;;;;;;;;;;;;;;;;;7370327;19;707;-68
2023/01/12 00:26:55;;;;;;;;;;;;;;;;;;7371862;19;791;-67
2023/01/12 00:29:23;;;;;;;;;;;;;;;;;;7369898;19;720;-67
2023/01/12 00:31:51;;;;;;;;;;;;;;;;;;7371540;19;1918;-68
2023/01/12 00:34:19;;;;;;;;;;;;;;;;;;7372401;19;1856;-67
2023/01/12 00:36:47;;;;;;;;;;;;;;;;;;7373440;19;859;-68
2023/01/12 00:39:15;;;;;;;;;;;;;;;;;;7373225;19;833;-69
2023/01/12 00:47:05;;;;;;;;;;;;;;;;;;7377480;19;1864;-69
2023/01/12 00:49:33;;;;;;;;;;;;;;;;;;7378793;19;1837;-69
2023/01/12 00:52:01;;;;;;;;;;;;;;;;;;7377817;19;1860;-69
2023/01/12 00:54:29;;;;;;;;;;;;;;;;;;7372437;19;1853;-69
2023/01/12 00:56:57;;;;;;;;;;;;;;;;;;7374926;19;901;-69
2023/01/12 00:59:26;;;;;;;;;;;;;;;;;;7375859;19;1777;-69
2023/01/12 01:01:54;;;;;;;;;;;;;;;;;;7373188;19;1263;-66
2023/01/12 01:04:22;;;;;;;;;;;;;;;;;;7369618;19;867;-67
2023/01/12 01:06:50;;;;;;;;;;;;;;;;;;7369628;19;874;-66
2023/01/12 01:09:18;;;;;;;;;;;;;;;;;;7365787;19;804;-67
2023/01/12 01:11:46;;;;;;;;;;;;;;;;;;7369574;19;1828;-65
2023/01/12 01:14:14;;;;;;;;;;;;;;;;;;7369441;19;1908;-67
2023/01/12 01:16:42;;;;;;;;;;;;;;;;;;7369799;19;819;-68
2023/01/12 01:19:11;;;;;;;;;;;;;;;;;;7369006;19;888;-69
2023/01/12 01:21:39;;;;;;;;;;;;;;;;;;7369486;19;1310;-68
2023/01/12 01:24:07;;;;;;;;;;;;;;;;;;7369062;19;819;-68
2023/01/12 01:26:35;;;;;;;;;;;;;;;;;;7369245;19;823;-68
2023/01/12 01:29:03;;;;;;;;;;;;;;;;;;7371240;19;1824;-69
2023/01/12 01:31:31;;;;;;;;;;;;;;;;;;7368197;19;857;-67
2023/01/12 01:33:59;;;;;;;;;;;;;;;;;;7365092;19;1853;-67
2023/01/12 01:36:28;;;;;;;;;;;;;;;;;;7368785;19;835;-69
2023/01/12 01:38:56;;;;;;;;;;;;;;;;;;7370177;19;1851;-68
2023/01/12 01:41:24;;;;;;;;;;;;;;;;;;7368849;19;1908;-68
2023/01/12 01:43:52;;;;;;;;;;;;;;;;;;7365988;19;1230;-69
2023/01/12 01:46:20;;;;;;;;;;;;;;;;;;7369013;19;827;-68
2023/01/12 01:48:48;;;;;;;;;;;;;;;;;;7368689;19;804;-68
2023/01/12 01:51:16;;;;;;;;;;;;;;;;;;7368954;19;850;-68
2023/01/12 01:53:45;;;;;;;;;;;;;;;;;;7365441;19;1857;-68
2023/01/12 01:56:13;;;;;;;;;;;;;;;;;;7369472;19;1900;-67
2023/01/12 01:58:41;;;;;;;;;;;;;;;;;;7367308;19;812;-66
2023/01/12 02:01:09;;;;;;;;;;;;;;;;;;7369774;19;1890;-68
2023/01/12 02:03:37;;;;;;;;;;;;;;;;;;7365814;19;1335;-67
2023/01/12 02:06:05;;;;;;;;;;;;;;;;;;7366093;19;832;-68
2023/01/12 02:08:33;;;;;;;;;;;;;;;;;;7366865;19;855;-68
2023/01/12 02:11:01;;;;;;;;;;;;;;;;;;7370527;19;1900;-66
2023/01/12 02:16:24;;;;;;;;;;;;;;;;;;7363308;19;1845;-66
2023/01/12 02:18:52;;;;;;;;;;;;;;;;;;7366861;19;902;-67
2023/01/12 02:21:20;;;;;;;;;;;;;;;;;;7367731;19;890;-67
2023/01/12 02:23:48;;;;;;;;;;;;;;;;;;7365023;19;1890;-67
2023/01/12 02:26:16;;;;;;;;;;;;;;;;;;7366817;19;819;-67
2023/01/12 02:28:44;;;;;;;;;;;;;;;;;;7365835;19;786;-67
2023/01/12 02:31:15;;;;;;;;;;;;;;;;;;7363970;19;1051;-68
2023/01/12 02:33:43;;;;;;;;;;;;;;;;;;7367844;19;2098;-68
2023/01/12 02:36:12;;;;;;;;;;;;;;;;;;7367969;19;1987;-69
2023/01/12 02:38:40;;;;;;;;;;;;;;;;;;7367761;19;1841;-67
2023/01/12 02:41:08;;;;;;;;;;;;;;;;;;7366268;19;854;-68
2023/01/12 02:43:34;;;;;;;;;;;;;;;;;;7361692;19;1349;-67
2023/01/12 02:46:02;;;;;;;;;;;;;;;;;;7366120;19;796;-67
2023/01/12 02:48:30;;;;;;;;;;;;;;;;;;7365271;19;858;-67
2023/01/12 02:50:58;;;;;;;;;;;;;;;;;;7365778;19;843;-66
2023/01/12 02:53:26;;;;;;;;;;;;;;;;;;7367385;19;2124;-66
2023/01/12 02:55:54;;;;;;;;;;;;;;;;;;7361633;19;1861;-66
2023/01/12 02:58:22;;;;;;;;;;;;;;;;;;7364669;19;814;-66
2023/01/12 03:00:50;;;;;;;;;;;;;;;;;;7365641;19;803;-66
2023/01/12 03:03:19;;;;;;;;;;;;;;;;;;7363005;19;1266;-66
2023/01/12 03:05:47;;;;;;;;;;;;;;;;;;7365719;19;1865;-66
2023/01/12 03:08:15;;;;;;;;;;;;;;;;;;7364078;19;795;-66
2023/01/12 03:10:43;;;;;;;;;;;;;;;;;;7364821;19;785;-67
2023/01/12 03:13:12;;;;;;;;;;;;;;;;;;7363150;19;1270;-67
2023/01/12 03:15:40;;;;;;;;;;;;;;;;;;7362788;19;1841;-66
2023/01/12 03:18:08;;;;;;;;;;;;;;;;;;7363933;19;863;-67
2023/01/12 03:20:36;;;;;;;;;;;;;;;;;;7366584;19;1874;-67
2023/01/12 03:23:04;;;;;;;;;;;;;;;;;;7363038;19;1341;-65
2023/01/12 03:25:32;;;;;;;;;;;;;;;;;;7363871;19;783;-65
2023/01/12 03:28:00;;;;;;;;;;;;;;;;;;7364673;19;1876;-66
2023/01/12 03:30:28;;;;;;;;;;;;;;;;;;7364449;19;838;-66
2023/01/12 03:32:57;;;;;;;;;;;;;;;;;;7369276;19;1294;-66
2023/01/12 03:35:25;;;;;;;;;;;;;;;;;;7373869;19;1845;-66
2023/01/12 03:37:53;;;;;;;;;;;;;;;;;;7370708;19;806;-66
2023/01/12 03:40:21;;;;;;;;;;;;;;;;;;7371459;19;812;-65
2023/01/12 03:42:49;;;;;;;;;;;;;;;;;;7370441;19;1287;-65
2023/01/12 03:45:17;;;;;;;;;;;;;;;;;;7369868;19;830;-66
2023/01/12 03:47:46;;;;;;;;;;;;;;;;;;7370591;19;1854;-65
2023/01/12 03:50:14;;;;;;;;;;;;;;;;;;7370580;19;858;-66
2023/01/12 03:52:42;;;;;;;;;;;;;;;;;;7370127;19;1302;-66
2023/01/12 03:55:10;;;;;;;;;;;;;;;;;;7368314;19;1849;-65
2023/01/12 03:57:39;;;;;;;;;;;;;;;;;;7370144;19;866;-65
2023/01/12 04:00:07;;;;;;;;;;;;;;;;;;7369680;19;874;-65
2023/01/12 04:02:40;;;;;;;;;;;;;;;;;;7371062;19;1686;-65
2023/01/12 04:05:08;;;;;;;;;;;;;;;;;;7374150;19;1907;-65
2023/01/12 04:07:36;;;;;;;;;;;;;;;;;;7369704;19;853;-66
2023/01/12 04:10:05;;;;;;;;;;;;;;;;;;7370138;19;820;-66
2023/01/12 04:12:30;;;;;;;;;;;;;;;;;;7369273;19;1278;-64
2023/01/12 04:14:58;;;;;;;;;;;;;;;;;;7369185;19;1803;-64
2023/01/12 04:17:28;;;;;;;;;;;;;;;;;;7370168;19;1769;-66
2023/01/12 04:19:56;;;;;;;;;;;;;;;;;;7369509;19;799;-65
2023/01/12 04:25:04;;;;;;;;;;;;;;;;;;7370156;19;775;-66
2023/01/12 04:27:33;;;;;;;;;;;;;;;;;;7370304;19;792;-64
2023/01/12 04:30:01;;;;;;;;;;;;;;;;;;7371615;19;1859;-64
2023/01/12 04:32:29;;;;;;;;;;;;;;;;;;7368881;19;1306;-66
2023/01/12 04:34:57;;;;;;;;;;;;;;;;;;7372218;19;1895;-65
2023/01/12 04:37:25;;;;;;;;;;;;;;;;;;7369814;19;816;-64
2023/01/12 04:39:53;;;;;;;;;;;;;;;;;;7368141;19;734;-65
2023/01/12 04:45:02;;;;;;;;;;;;;;;;;;7369209;19;770;-65
2023/01/12 04:47:30;;;;;;;;;;;;;;;;;;7369576;19;886;-66
2023/01/12 04:49:58;;;;;;;;;;;;;;;;;;7368772;19;1833;-65
2023/01/12 04:52:26;;;;;;;;;;;;;;;;;;7368576;19;1875;-66
2023/01/12 04:54:55;;;;;;;;;;;;;;;;;;7368944;19;1849;-64
2023/01/12 04:57:23;;;;;;;;;;;;;;;;;;7368725;19;804;-65
2023/01/12 04:59:51;;;;;;;;;;;;;;;;;;7369533;19;1829;-65
2023/01/12 05:02:19;;;;;;;;;;;;;;;;;;7367687;19;1275;-64
2023/01/12 05:04:47;;;;;;;;;;;;;;;;;;7367888;19;826;-65
2023/01/12 05:07:15;;;;;;;;;;;;;;;;;;7370462;19;1907;-64
2023/01/12 05:12:24;;;;;;;;;;;;;;;;;;7367589;19;1267;-64
2023/01/12 05:14:52;;;;;;;;;;;;;;;;;;7367194;19;1842;-63
2023/01/12 05:17:20;;;;;;;;;;;;;;;;;;7368078;19;1887;-64
2023/01/12 05:19:49;;;;;;;;;;;;;;;;;;7367363;19;801;-65
2023/01/12 05:22:17;;;;;;;;;;;;;;;;;;7367282;19;1259;-65
2023/01/12 05:24:45;;;;;;;;;;;;;;;;;;7368915;19;806;-66
2023/01/12 05:27:13;;;;;;;;;;;;;;;;;;7368091;19;826;-67
2023/01/12 05:29:42;;;;;;;;;;;;;;;;;;7365865;19;811;-68
2023/01/12 05:32:10;;;;;;;;;;;;;;;;;;7369085;19;1902;-66
2023/01/12 05:34:38;;;;;;;;;;;;;;;;;;7368865;19;1692;-65
2023/01/12 05:37:06;;;;;;;;;;;;;;;;;;7365615;19;1853;-66
2023/01/12 05:39:34;;;;;;;;;;;;;;;;;;7367206;19;819;-66
2023/01/12 05:44:43;;;;;;;;;;;;;;;;;;7367614;19;835;-66
2023/01/12 05:47:11;;;;;;;;;;;;;;;;;;7368212;19;833;-66
2023/01/12 05:49:39;;;;;;;;;;;;;;;;;;7370731;19;1784;-66
2023/01/12 05:52:08;;;;;;;;;;;;;;;;;;7371378;19;2034;-66
2023/01/12 05:54:36;;;;;;;;;;;;;;;;;;7365785;19;875;-67
2023/01/12 05:57:04;;;;;;;;;;;;;;;;;;7365032;19;1919;-67
2023/01/12 05:59:32;;;;;;;;;;;;;;;;;;7366401;19;799;-67
2023/01/12 06:02:00;;;;;;;;;;;;;;;;;;7367815;19;1322;-68
2023/01/12 06:04:28;;;;;;;;;;;;;;;;;;7368756;19;1868;-65
2023/01/12 06:06:56;;;;;;;;;;;;;;;;;;7367977;19;886;-66
2023/01/12 06:09:25;;;;;;;;;;;;;;;;;;7367055;19;799;-66
2023/01/12 06:14:34;;;;;;;;;;;;;;;;;;7367748;19;744;-65
2023/01/12 06:17:02;;;;;;;;;;;;;;;;;;7364735;19;1850;-66
2023/01/12 06:19:30;;;;;;;;;;;;;;;;;;7366391;19;864;-68
2023/01/12 06:21:59;;;;;;;;;;;;;;;;;;7369490;19;1836;-69
2023/01/12 06:24:27;;;;;;;;;;;;;;;;;;7368153;19;1827;-68
2023/01/12 06:26:55;;;;;;;;;;;;;;;;;;7367072;19;859;-66
2023/01/12 06:29:23;;;;;;;;;;;;;;;;;;7366488;19;896;-68
2023/01/12 06:31:51;;;;;;;;;;;;;;;;;;7366425;19;1353;-67
2023/01/12 06:34:19;;;;;;;;;;;;;;;;;;7365132;19;843;-68
2023/01/12 06:36:48;;;;;;;;;;;;;;;;;;7364001;19;1854;-68
2023/01/12 06:39:16;;;;;;;;;;;;;;;;;;7370245;19;1822;-67
2023/01/12 06:44:25;;;;;;;;;;;;;;;;;;7365587;19;843;-67
2023/01/12 06:46:53;;;;;;;;;;;;;;;;;;7368569;19;1837;-66
2023/01/12 06:49:21;;;;;;;;;;;;;;;;;;7364686;19;1024;-67
2023/01/12 06:51:50;;;;;;;;;;;;;;;;;;7365977;19;1295;-65
2023/01/12 06:54:18;;;;;;;;;;;;;;;;;;7366166;19;819;-66
2023/01/12 06:56:46;;;;;;;;;;;;;;;;;;7363477;19;1840;-65
2023/01/12 06:59:14;;;;;;;;;;;;;;;;;;7364876;19;795;-66
2023/01/12 07:01:42;;;;;;;;;;;;;;;;;;7365230;19;1294;-65
2023/01/12 07:04:10;;;;;;;;;;;;;;;;;;7365164;19;875;-66
2023/01/12 07:06:39;;;;;;;;;;;;;;;;;;7369806;19;904;-65
2023/01/12 07:09:07;;;;;;;;;;;;;;;;;;7371318;19;897;-66
2023/01/12 07:11:35;;;;;;;;;;;;;;;;;;7372239;19;760;-66
2023/01/12 07:14:03;;;;;;;;;;;;;;;;;;7370523;19;1303;-66
2023/01/12 07:16:32;;;;;;;;;;;;;;;;;;7370927;19;1853;-66
2023/01/12 07:19:00;;;;;;;;;;;;;;;;;;7375817;19;1883;-68
2023/01/12 07:21:28;;;;;;;;;;;;;;;;;;7375078;19;805;-67
2023/01/12 07:23:57;;;;;;;;;;;;;;;;;;7369929;19;1369;-65
2023/01/12 07:26:25;;;;;;;;;;;;;;;;;;7371914;19;850;-68
2023/01/12 07:28:53;;;;;;;;;;;;;;;;;;7370330;19;784;-66
2023/01/12 07:31:21;;;;;;;;;;;;;;;;;;7370619;19;820;-67
2023/01/12 07:33:49;;;;;;;;;;;;;;;;;;7369597;19;1255;-67
2023/01/12 07:36:17;;;;;;;;;;;;;;;;;;7370466;19;1865;-65
2023/01/12 07:38:46;;;;;;;;;;;;;;;;;;7372117;19;812;-65
2023/01/12 07:42:22;;;;;;;;;;;;;;;;;;7371756;19;1889;-65
2023/01/12 07:44:09;;;;;;;;;;;;;;;;;;7370595;19;1008;-65
2023/01/12 07:46:37;;;;;;;;;;;;;;;;;;7371062;19;791;-65
2023/01/12 07:49:05;;;;;;;;;;;;;;;;;;7370768;19;815;-66
2023/01/12 07:51:34;;;;;;;;;;;;;;;;;;7371291;19;771;-67
2023/01/12 07:54:02;;;;;;;;;;;;;;;;;;7368584;19;1279;-65
2023/01/12 07:56:30;;;;;;;;;;;;;;;;;;7374025;19;1883;-67
2023/01/12 07:58:58;;;;;;;;;;;;;;;;;;7370728;19;813;-66
2023/01/12 08:01:26;;;;;;;;;;;;;;;;;;7371757;19;858;-67
2023/01/12 08:03:54;;;;;;;;;;;;;;;;;;7368623;19;1280;-67
2023/01/12 08:06:23;;;;;;;;;;;;;;;;;;7371343;19;859;-68
2023/01/12 08:08:51;;;;;;;;;;;;;;;;;;7369725;19;1734;-66
2023/01/12 08:11:19;;;;;;;;;;;;;;;;;;7370049;19;854;-66
2023/01/12 08:13:47;;;;;;;;;;;;;;;;;;7367566;19;1860;-66
2023/01/12 08:16:15;;;;;;;;;;;;;;;;;;7369713;19;1841;-66
2023/01/12 08:18:44;;;;;;;;;;;;;;;;;;7368901;19;758;-66
2023/01/12 08:21:12;;;;;;;;;;;;;;;;;;7369699;19;838;-68
2023/01/12 08:23:40;;;;;;;;;;;;;;;;;;7368001;19;1317;-69
2023/01/12 08:26:08;;;;;;;;;;;;;;;;;;7370562;19;866;-68
2023/01/12 08:28:36;;;;;;;;;;;;;;;;;;7370487;19;848;-68
2023/01/12 08:31:04;;;;;;;;;;;;;;;;;;7369948;19;862;-67
2023/01/12 08:33:33;;;;;;;;;;;;;;;;;;7371000;19;1752;-68
2023/01/12 08:36:01;;;;;;;;;;;;;;;;;;7369844;19;1867;-69
2023/01/12 08:38:29;;;;;;;;;;;;;;;;;;7368775;19;939;-68
2023/01/12 08:46:18;;;;;;;;;;;;;;;;;;7369963;19;814;-67
2023/01/12 08:48:47;;;;;;;;;;;;;;;;;;7369692;19;817;-68
2023/01/12 08:51:15;;;;;;;;;;;;;;;;;;7369917;19;804;-70
2023/01/12 08:53:43;;;;;;;;;;;;;;;;;;7367831;19;1328;-67
2023/01/12 08:56:11;;;;;;;;;;;;;;;;;;7367855;19;1854;-66
2023/01/12 08:58:39;;;;;;;;;;;;;;;;;;7368981;19;802;-66
2023/01/12 09:01:08;;;;;;;;;;;;;;;;;;7369966;19;905;-67
2023/01/12 09:03:36;;;;;;;;;;;;;;;;;;7367255;19;1687;-66
2023/01/12 09:06:04;;;;;;;;;;;;;;;;;;7367513;19;778;-66
2023/01/12 09:08:33;;;;;;;;;;;;;;;;;;7367602;19;894;-66
2023/01/12 09:11:01;;;;;;;;;;;;;;;;;;7369505;19;875;-68
2023/01/12 09:13:30;;;;;;;;;;;;;;;;;;7367681;19;1367;-68
2023/01/12 09:15:58;;;;;;;;;;;;;;;;;;7369097;19;1853;-67
2023/01/12 09:18:26;;;;;;;;;;;;;;;;;;7369194;19;816;-66
2023/01/12 09:20:54;;;;;;;;;;;;;;;;;;7367474;19;784;-67
2023/01/12 09:23:22;;;;;;;;;;;;;;;;;;7366729;19;1271;-67
2023/01/12 09:25:50;;;;;;;;;;;;;;;;;;7368680;19;851;-67
2023/01/12 09:28:18;;;;;;;;;;;;;;;;;;7367239;19;866;-67
2023/01/12 09:30:47;;;;;;;;;;;;;;;;;;7367217;19;800;-67
2023/01/12 09:33:15;;;;;;;;;;;;;;;;;;7366840;19;1281;-66
2023/01/12 09:35:43;;;;;;;;;;;;;;;;;;7368456;19;736;-67
2023/01/12 09:38:11;;;;;;;;;;;;;;;;;;7363006;19;1841;-68
2023/01/12 09:40:39;;;;;;;;;;;;;;;;;;7368316;19;798;-66
2023/01/12 09:48:29;;;;;;;;;;;;;;;;;;7367582;19;784;-66
2023/01/12 09:50:57;;;;;;;;;;;;;;;;;;7368414;19;834;-66
2023/01/12 09:53:25;;;;;;;;;;;;;;;;;;7366329;19;1302;-67
2023/01/12 09:55:53;;;;;;;;;;;;;;;;;;7368175;19;784;-66
2023/01/12 09:58:21;;;;;;;;;;;;;;;;;;7364783;19;1853;-67
2023/01/12 10:00:49;;;;;;;;;;;;;;;;;;7368758;19;851;-65
2023/01/12 10:03:17;;;;;;;;;;;;;;;;;;7365992;19;1283;-66
2023/01/12 10:05:46;;;;;;;;;;;;;;;;;;7368296;19;728;-66
2023/01/12 10:08:14;;;;;;;;;;;;;;;;;;7367687;19;717;-66
2023/01/12 10:10:42;;;;;;;;;;;;;;;;;;7368754;19;734;-66
2023/01/12 10:13:12;;;;;;;;;;;;;;;;;;7366568;19;1310;-67
2023/01/12 10:15:41;;;;;;;;;;;;;;;;;;7368139;19;814;-66
2023/01/12 10:18:09;;;;;;;;;;;;;;;;;;7364741;19;1844;-64
2023/01/12 10:20:37;;;;;;;;;;;;;;;;;;7367910;19;939;-65
2023/01/12 10:23:05;;;;;;;;;;;;;;;;;;7366235;19;1331;-65
2023/01/12 10:25:33;;;;;;;;;;;;;;;;;;7366969;19;934;-68
2023/01/12 10:28:01;;;;;;;;;;;;;;;;;;7366732;19;885;-68
2023/01/12 10:30:30;;;;;;;;;;;;;;;;;;7367768;19;831;-67
2023/01/12 10:32:58;;;;;;;;;;;;;;;;;;7366666;19;1270;-65
2023/01/12 10:35:26;;;;;;;;;;;;;;;;;;7368425;19;814;-66
2023/01/12 10:37:54;;;;;;;;;;;;;;;;;;7364701;19;1807;-65
2023/01/12 10:40:23;;;;;;;;;;;;;;;;;;7365730;19;982;-66
2023/01/12 10:45:43;;;;;;;;;;;;;;;;;;7364398;19;1161;-67
2023/01/12 10:48:11;;;;;;;;;;;;;;;;;;7365977;19;1055;-66
2023/01/12 10:50:41;;;;;;;;;;;;;;;;;;7367318;19;983;-65
2023/01/12 10:53:09;;;;;;;;;;;;;;;;;;7365745;19;1278;-65
2023/01/12 10:55:38;;;;;;;;;;;;;;;;;;7367211;19;850;-67
2023/01/12 10:58:06;;;;;;;;;;;;;;;;;;7365603;19;1829;-68
2023/01/12 11:00:35;;;;;;;;;;;;;;;;;;7367339;19;826;-67
2023/01/12 11:03:03;;;;;;;;;;;;;;;;;;7365261;19;1275;-66
2023/01/12 11:05:32;;;;;;;;;;;;;;;;;;7367263;19;834;-66
2023/01/12 11:08:01;;;;;;;;;;;;;;;;;;7366426;19;892;-66
2023/01/12 11:10:29;;;;;;;;;;;;;;;;;;7366650;19;813;-66
2023/01/12 11:12:57;;;;;;;;;;;;;;;;;;7365751;19;1327;-67
2023/01/12 11:15:26;;;;;;;;;;;;;;;;;;7367750;19;811;-65
2023/01/12 11:17:54;;;;;;;;;;;;;;;;;;7364215;19;1831;-67
2023/01/12 11:20:22;;;;;;;;;;;;;;;;;;7366308;19;806;-68
2023/01/12 11:22:50;;;;;;;;;;;;;;;;;;7363907;19;1262;-66
2023/01/12 11:25:19;;;;;;;;;;;;;;;;;;7365587;19;808;-68
2023/01/12 11:27:47;;;;;;;;;;;;;;;;;;7365647;19;871;-68
2023/01/12 11:30:15;;;;;;;;;;;;;;;;;;7365362;19;869;-68
2023/01/12 11:32:43;;;;;;;;;;;;;;;;;;7364724;19;1270;-67
2023/01/12 11:35:12;;;;;;;;;;;;;;;;;;7365693;19;873;-67
2023/01/12 11:37:41;;;;;;;;;;;;;;;;;;7364380;19;1830;-68
2023/01/12 11:40:09;;;;;;;;;;;;;;;;;;7365670;19;876;-67
2023/01/12 11:45:18;;;;;;;;;;;;;;;;;;7364832;19;850;-68
2023/01/12 11:47:46;;;;;;;;;;;;;;;;;;7365005;19;870;-68
2023/01/12 11:50:14;;;;;;;;;;;;;;;;;;7365599;19;823;-67
2023/01/12 11:52:42;;;;;;;;;;;;;;;;;;7365532;19;1350;-69
2023/01/12 11:55:10;;;;;;;;;;;;;;;;;;7372125;19;831;-67
2023/01/12 11:57:40;;;;;;;;;;;;;;;;;;7369983;19;1841;-68
2023/01/12 12:00:08;;;;;;;;;;;;;;;;;;7372217;19;831;-69
2023/01/12 12:02:42;;;;;;;;;;;;;;;;;;7370337;19;1322;-67
2023/01/12 12:05:10;;;;;;;;;;;;;;;;;;7371269;19;807;-67
2023/01/12 12:07:38;;;;;;;;;;;;;;;;;;7371810;19;875;-71
2023/01/12 12:10:06;;;;;;;;;;;;;;;;;;7371480;19;835;-67
2023/01/12 12:12:34;;;;;;;;;;;;;;;;;;7370381;19;1337;-68
2023/01/12 12:15:03;;;;;;;;;;;;;;;;;;7370992;19;812;-68
2023/01/12 12:17:31;;;;;;;;;;;;;;;;;;7369646;19;1865;-67
2023/01/12 12:19:59;;;;;;;;;;;;;;;;;;7370115;19;803;-65
2023/01/12 12:22:27;;;;;;;;;;;;;;;;;;7369387;19;1265;-66
2023/01/12 12:24:55;;;;;;;;;;;;;;;;;;7370779;19;807;-68
2023/01/12 12:27:24;;;;;;;;;;;;;;;;;;7370743;19;863;-66
2023/01/12 12:29:52;;;;;;;;;;;;;;;;;;7370644;19;705;-66
2023/01/12 12:32:20;;;;;;;;;;;;;;;;;;7370036;19;1328;-67
2023/01/12 12:34:50;;;;;;;;;;;;;;;;;;7370479;19;812;-67
2023/01/12 12:37:18;;;;;;;;;;;;;;;;;;7370032;19;1820;-67
2023/01/12 12:39:46;;;;;;;;;;;;;;;;;;7369934;19;747;-66
2023/01/12 12:47:35;;;;;;;;;;;;;;;;;;7370363;19;870;-67
2023/01/12 12:50:04;;;;;;;;;;;;;;;;;;7370012;19;780;-69
2023/01/12 12:52:33;;;;;;;;;;;;;;;;;;7369242;19;1247;-67
2023/01/12 12:55:01;;;;;;;;;;;;;;;;;;7368111;19;864;-68
2023/01/12 12:57:29;;;;;;;;;;;;;;;;;;7369164;19;1834;-66
2023/01/12 12:59:58;;;;;;;;;;;;;;;;;;7369615;19;819;-67
2023/01/12 13:02:26;;;;;;;;;;;;;;;;;;7369395;19;1228;-68
2023/01/12 13:04:56;;;;;;;;;;;;;;;;;;7369361;19;795;-68
2023/01/12 13:07:24;;;;;;;;;;;;;;;;;;7371616;19;1083;-65
2023/01/12 13:09:52;;;;;;;;;;;;;;;;;;7373673;19;1599;-67
2023/01/12 13:12:20;;;;;;;;;;;;;;;;;;7368839;19;1349;-69
2023/01/12 13:14:49;;;;;;;;;;;;;;;;;;7369968;19;830;-66
2023/01/12 13:17:17;;;;;;;;;;;;;;;;;;7370404;19;1811;-67
2023/01/12 13:19:45;;;;;;;;;;;;;;;;;;7368891;19;831;-68
2023/01/12 13:22:13;;;;;;;;;;;;;;;;;;7368363;19;1329;-68
2023/01/12 13:24:41;;;;;;;;;;;;;;;;;;7369847;19;810;-68
2023/01/12 13:27:10;;;;;;;;;;;;;;;;;;7370101;19;1776;-66
2023/01/12 13:29:38;;;;;;;;;;;;;;;;;;7368706;19;955;-66
2023/01/12 13:32:06;;;;;;;;;;;;;;;;;;7368052;19;1502;-68
2023/01/12 13:34:34;;;;;;;;;;;;;;;;;;7368737;19;801;-68
2023/01/12 13:37:03;;;;;;;;;;;;;;;;;;7367924;19;797;-69
2023/01/12 13:39:31;;;;;;;;;;;;;;;;;;7367517;19;786;-68
2023/01/12 13:44:41;;;;;;;;;;;;;;;;;;7367967;19;846;-68
2023/01/12 13:47:09;;;;;;;;;;;;;;;;;;7369003;19;1956;-70
2023/01/12 13:49:38;;;;;;;;;;;;;;;;;;7369514;19;1858;-70
2023/01/12 13:52:07;;;;;;;;;;;;;;;;;;7366776;19;1286;-70
2023/01/12 13:54:35;;;;;;;;;;;;;;;;;;7368340;19;835;-69
2023/01/12 13:57:04;;;;;;;;;;;;;;;;;;7367523;19;833;-69
2023/01/12 13:59:33;;;;;;;;;;;;;;;;;;7364371;19;1854;-69
2023/01/12 14:02:01;;;;;;;;;;;;;;;;;;7365984;19;1243;-69
2023/01/12 14:04:30;;;;;;;;;;;;;;;;;;7368828;19;2117;-68
2023/01/12 14:06:58;;;;;;;;;;;;;;;;;;7366332;19;875;-68
2023/01/12 14:09:26;;;;;;;;;;;;;;;;;;7366604;19;795;-68
2023/01/12 14:11:54;;;;;;;;;;;;;;;;;;7365567;19;1306;-67
2023/01/12 14:19:43;;;;;;;;;;;;;;;;;;7367322;19;2094;-70
2023/01/12 14:22:12;;;;;;;;;;;;;;;;;;7364502;19;1298;-69
2023/01/12 14:24:40;;;;;;;;;;;;;;;;;;7368248;19;782;-69
2023/01/12 14:27:08;;;;;;;;;;;;;;;;;;7367139;19;829;-67
2023/01/12 14:29:36;;;;;;;;;;;;;;;;;;7366301;19;844;-67
2023/01/12 14:32:04;;;;;;;;;;;;;;;;;;7364452;19;1342;-68
2023/01/12 14:34:33;;;;;;;;;;;;;;;;;;7367796;19;1862;-67
2023/01/12 14:37:01;;;;;;;;;;;;;;;;;;7367806;19;897;-69
2023/01/12 14:39:30;;;;;;;;;;;;;;;;;;7362948;19;1863;-69
2023/01/12 14:47:19;;;;;;;;;;;;;;;;;;7367395;19;856;-69
2023/01/12 14:49:47;;;;;;;;;;;;;;;;;;7369716;19;1843;-71
2023/01/12 14:52:16;;;;;;;;;;;;;;;;;;7365906;19;1204;-69
2023/01/12 14:54:44;;;;;;;;;;;;;;;;;;7365226;19;766;-69
2023/01/12 14:57:12;;;;;;;;;;;;;;;;;;7366792;19;879;-68
2023/01/12 14:59:41;;;;;;;;;;;;;;;;;;7363702;19;1850;-70
2023/01/12 15:02:09;;;;;;;;;;;;;;;;;;7366927;19;1315;-70
2023/01/12 15:04:37;;;;;;;;;;;;;;;;;;7369648;19;850;-71
2023/01/12 15:07:05;;;;;;;;;;;;;;;;;;7375789;19;1907;-67
2023/01/12 15:09:33;;;;;;;;;;;;;;;;;;7371172;19;863;-70
2023/01/12 15:12:01;;;;;;;;;;;;;;;;;;7370629;19;1362;-70
2023/01/12 15:14:30;;;;;;;;;;;;;;;;;;7373546;19;1691;-72
2023/01/12 15:27:40;;;;;;;;;;;;;;;;;;7375217;19;1952;-66
2023/01/12 15:30:08;;;;;;;;;;;;;;;;;;7373379;19;851;-70
2023/01/12 15:32:37;;;;;;;;;;;;;;;;;;7372247;19;1336;-69
2023/01/12 15:35:05;;;;;;;;;;;;;;;;;;7372715;19;806;-71
2023/01/12 15:37:33;;;;;;;;;;;;;;;;;;7372973;19;803;-70
2023/01/12 15:40:01;;;;;;;;;;;;;;;;;;7371239;19;784;-69
2023/01/12 15:42:29;;;;;;;;;;;;;;;;;;7371138;19;1267;-70
2023/01/12 15:44:57;;;;;;;;;;;;;;;;;;7372140;19;888;-69
2023/01/12 15:47:26;;;;;;;;;;;;;;;;;;7371024;19;856;-70
2023/01/12 15:49:54;;;;;;;;;;;;;;;;;;7371104;19;828;-70
2023/01/12 15:52:22;;;;;;;;;;;;;;;;;;7370911;19;1287;-69
2023/01/12 15:54:51;;;;;;;;;;;;;;;;;;7374214;19;1841;-70
2023/01/12 15:57:19;;;;;;;;;;;;;;;;;;7372987;19;811;-69
2023/01/12 15:59:47;;;;;;;;;;;;;;;;;;7369070;19;1853;-69
2023/01/12 16:02:15;;;;;;;;;;;;;;;;;;7373546;19;2223;-70
2023/01/12 16:04:43;;;;;;;;;;;;;;;;;;7369993;19;819;-69
2023/01/12 16:07:11;;;;;;;;;;;;;;;;;;7370625;19;859;-67
2023/01/12 16:09:39;;;;;;;;;;;;;;;;;;7370312;19;1843;-69
2023/01/12 16:12:08;;;;;;;;;;;;;;;;;;7369401;19;1344;-69
2023/01/12 16:14:36;;;;;;;;;;;;;;;;;;7370478;19;1891;-69
2023/01/12 16:17:04;;;;;;;;;;;;;;;;;;7370288;19;788;-69
2023/01/12 16:19:32;;;;;;;;;;;;;;;;;;7365750;19;1860;-70
2023/01/12 16:22:00;;;;;;;;;;;;;;;;;;7369819;19;1342;-69
2023/01/12 16:24:31;;;;;;;;;;;;;;;;;;7369366;19;815;-68
2023/01/12 16:26:59;;;;;;;;;;;;;;;;;;7370131;19;764;-69
2023/01/12 16:29:27;;;;;;;;;;;;;;;;;;7368450;19;850;-69
2023/01/12 16:31:55;;;;;;;;;;;;;;;;;;7369482;19;1354;-70
2023/01/12 16:34:24;;;;;;;;;;;;;;;;;;7367789;19;794;-67
2023/01/12 16:36:52;;;;;;;;;;;;;;;;;;7369076;19;847;-69
2023/01/12 16:39:20;;;;;;;;;;;;;;;;;;7365775;19;1818;-69
2023/01/12 16:41:48;;;;;;;;;;;;;;;;;;7370112;19;1862;-70
2023/01/12 16:44:16;;;;;;;;;;;;;;;;;;7369196;19;863;-67
2023/01/12 16:46:47;;;;;;;;;;;;;;;;;;7369308;19;799;-70
2023/01/12 16:49:15;;;;;;;;;;;;;;;;;;7369890;19;763;-69
2023/01/12 16:51:44;;;;;;;;;;;;;;;;;;7369943;19;1766;-70
2023/01/12 16:54:13;;;;;;;;;;;;;;;;;;7371781;19;1832;-71
2023/01/12 16:56:41;;;;;;;;;;;;;;;;;;7369383;19;819;-70
2023/01/12 16:59:09;;;;;;;;;;;;;;;;;;7367080;19;1857;-71
2023/01/12 17:01:37;;;;;;;;;;;;;;;;;;7368768;19;800;-70
2023/01/12 17:04:05;;;;;;;;;;;;;;;;;;7365781;19;1271;-69
2023/01/12 17:06:34;;;;;;;;;;;;;;;;;;7368274;19;753;-70
2023/01/12 17:09:02;;;;;;;;;;;;;;;;;;7367998;19;847;-71
2023/01/12 17:11:31;;;;;;;;;;;;;;;;;;7369360;19;795;-70
2023/01/12 17:13:59;;;;;;;;;;;;;;;;;;7366866;19;1334;-70
2023/01/12 17:16:28;;;;;;;;;;;;;;;;;;7369468;19;1905;-70
2023/01/12 17:18:56;;;;;;;;;;;;;;;;;;7365296;19;1849;-70
2023/01/12 17:21:24;;;;;;;;;;;;;;;;;;7369099;19;786;-70
2023/01/12 17:23:52;;;;;;;;;;;;;;;;;;7364140;19;1315;-70
2023/01/12 17:26:20;;;;;;;;;;;;;;;;;;7367799;19;799;-70
2023/01/12 17:28:49;;;;;;;;;;;;;;;;;;7365386;19;866;-69
2023/01/12 17:31:17;;;;;;;;;;;;;;;;;;7367940;19;763;-70
2023/01/12 17:33:45;;;;;;;;;;;;;;;;;;7366263;19;1366;-70
2023/01/12 17:36:13;;;;;;;;;;;;;;;;;;7367143;19;875;-68
2023/01/12 17:38:41;;;;;;;;;;;;;;;;;;7366788;19;1839;-68
2023/01/12 17:43:01;;;;;;;;;;;;;;;;;;7368556;19;866;-69
2023/01/12 17:43:55;;;;;;;;;;;;;;;;;;7363969;19;1830;-68
2023/01/12 17:46:23;;;;;;;;;;;;;;;;;;7366098;19;759;-69
2023/01/12 17:48:51;;;;;;;;;;;;;;;;;;7366410;19;855;-68
2023/01/12 17:51:20;;;;;;;;;;;;;;;;;;7365417;19;786;-68
2023/01/12 17:53:48;;;;;;;;;;;;;;;;;;7367982;19;1871;-68
2023/01/12 17:56:16;;;;;;;;;;;;;;;;;;7366830;19;916;-69
2023/01/12 17:58:44;;;;;;;;;;;;;;;;;;7365953;19;1838;-70
2023/01/12 18:01:12;;;;;;;;;;;;;;;;;;7371514;19;1896;-68
2023/01/12 18:03:41;;;;;;;;;;;;;;;;;;7364976;19;1259;-70
2023/01/12 18:06:09;;;;;;;;;;;;;;;;;;7366417;19;792;-70
2023/01/12 18:08:37;;;;;;;;;;;;;;;;;;7363864;19;767;-69
2023/01/12 18:11:05;;;;;;;;;;;;;;;;;;7366740;19;788;-70
2023/01/12 18:13:33;;;;;;;;;;;;;;;;;;7367989;19;1861;-70
2023/01/12 18:16:01;;;;;;;;;;;;;;;;;;7365705;19;876;-70
2023/01/12 18:18:30;;;;;;;;;;;;;;;;;;7366457;19;1833;-72
2023/01/12 18:20:58;;;;;;;;;;;;;;;;;;7367082;19;1684;-69
2023/01/12 18:23:27;;;;;;;;;;;;;;;;;;7366873;19;1808;-69
2023/01/12 18:25:55;;;;;;;;;;;;;;;;;;7366633;19;1867;-69
2023/01/12 18:28:23;;;;;;;;;;;;;;;;;;7368629;19;1852;-68
2023/01/12 18:30:51;;;;;;;;;;;;;;;;;;7370434;19;1824;-71